createdAt,value
2022-11-28T00:00:53.719Z,99.99
2022-11-28T00:01:53.803Z,99.99
2022-11-28T00:02:53.789Z,99.99
2022-11-28T00:03:53.675Z,99.99
2022-11-28T00:04:53.663Z,99.99
2022-11-28T00:05:53.667Z,99.99
2022-11-28T00:06:53.750Z,99.99
2022-11-28T00:07:53.707Z,99.99
2022-11-28T00:08:53.620Z,99.99
2022-11-28T00:09:53.601Z,99.99
2022-11-28T00:10:53.589Z,99.99
2022-11-28T00:11:53.564Z,99.99
2022-11-28T00:12:53.562Z,99.99
2022-11-28T00:13:53.539Z,99.99
2022-11-28T00:14:53.532Z,99.99
2022-11-28T00:15:53.532Z,99.99
2022-11-28T00:16:53.508Z,99.99
2022-11-28T00:17:53.496Z,99.99
2022-11-28T00:18:53.486Z,99.99
2022-11-28T00:19:53.463Z,99.99
2022-11-28T00:20:53.449Z,99.99
2022-11-28T00:21:53.443Z,99.99
2022-11-28T00:22:53.537Z,99.99
2022-11-28T00:23:53.410Z,99.99
2022-11-28T00:24:53.399Z,99.99
2022-11-28T00:25:53.388Z,99.99
2022-11-28T00:26:53.376Z,99.99
2022-11-28T00:27:53.363Z,99.99
2022-11-28T00:28:53.347Z,99.99
2022-11-28T00:29:53.333Z,99.99
2022-11-28T00:30:53.317Z,99.99
2022-11-28T00:31:53.355Z,99.99
2022-11-28T00:32:53.299Z,99.99
2022-11-28T00:33:53.279Z,99.99
2022-11-28T00:34:53.265Z,99.99
2022-11-28T00:35:53.260Z,99.99
2022-11-28T00:36:53.247Z,99.99
2022-11-28T00:37:53.239Z,99.99
2022-11-28T00:38:53.335Z,99.99
2022-11-28T00:39:53.208Z,99.99
2022-11-28T00:40:53.189Z,99.99
2022-11-28T00:41:53.186Z,99.99
2022-11-28T00:42:53.164Z,99.99
2022-11-28T00:43:53.157Z,99.99
2022-11-28T00:44:53.135Z,99.99
2022-11-28T00:45:53.205Z,99.99
2022-11-28T00:46:53.112Z,99.99
2022-11-28T00:47:53.100Z,99.99
2022-11-28T00:48:53.084Z,99.99
2022-11-28T00:49:53.072Z,99.99
2022-11-28T00:50:53.064Z,99.99
2022-11-28T00:51:53.053Z,99.99
2022-11-28T00:52:53.037Z,99.99
2022-11-28T00:53:53.025Z,99.99
2022-11-28T00:54:53.129Z,99.99
2022-11-28T00:55:52.993Z,99.99
2022-11-28T00:56:52.981Z,99.99
2022-11-28T00:57:52.971Z,99.99
2022-11-28T00:58:52.961Z,99.99
2022-11-28T00:59:52.942Z,99.99
2022-11-28T01:00:52.956Z,99.99
2022-11-28T01:01:52.961Z,99.99
2022-11-28T01:02:52.910Z,99.99
2022-11-28T01:03:52.894Z,99.99
2022-11-28T01:04:52.878Z,99.99
2022-11-28T01:05:52.864Z,99.99
2022-11-28T01:06:52.851Z,99.99
2022-11-28T01:07:52.875Z,99.99
2022-11-28T01:08:52.835Z,99.99
2022-11-28T01:09:52.813Z,99.99
2022-11-28T01:10:52.925Z,99.99
2022-11-28T01:11:52.786Z,99.99
2022-11-28T01:12:52.774Z,99.99
2022-11-28T01:13:52.768Z,99.99
2022-11-28T01:14:52.757Z,99.99
2022-11-28T01:15:52.793Z,99.99
2022-11-28T01:16:52.830Z,99.99
2022-11-28T01:17:52.720Z,99.99
2022-11-28T01:18:52.695Z,99.99
2022-11-28T01:19:52.698Z,99.99
2022-11-28T01:20:52.670Z,99.99
2022-11-28T01:21:52.660Z,99.99
2022-11-28T01:22:52.722Z,99.99
2022-11-28T01:23:52.626Z,99.99
2022-11-28T01:24:52.623Z,99.99
2022-11-28T01:25:52.605Z,99.99
2022-11-28T01:26:52.726Z,99.99
2022-11-28T01:27:52.580Z,99.99
2022-11-28T01:28:52.568Z,99.99
2022-11-28T01:29:52.565Z,99.99
2022-11-28T01:30:52.547Z,99.99
2022-11-28T01:31:52.612Z,99.99
2022-11-28T01:32:52.523Z,99.99
2022-11-28T01:33:52.510Z,99.99
2022-11-28T01:34:52.490Z,99.99
2022-11-28T01:35:52.484Z,99.99
2022-11-28T01:36:52.462Z,99.99
2022-11-28T01:37:52.450Z,99.99
2022-11-28T01:38:52.439Z,99.99
2022-11-28T01:39:52.424Z,99.99
2022-11-28T01:40:52.418Z,99.99
2022-11-28T01:41:52.407Z,99.99
2022-11-28T01:42:52.527Z,99.99
2022-11-28T01:43:52.372Z,99.99
2022-11-28T01:44:52.360Z,99.99
2022-11-28T01:45:52.360Z,99.99
2022-11-28T01:46:52.395Z,99.99
2022-11-28T01:47:52.321Z,99.99
2022-11-28T01:48:52.315Z,99.99
2022-11-28T01:49:52.302Z,99.99
2022-11-28T01:50:52.285Z,99.99
2022-11-28T01:51:52.277Z,99.99
2022-11-28T01:52:52.258Z,99.99
2022-11-28T01:53:52.250Z,99.99
2022-11-28T01:54:52.233Z,99.99
2022-11-28T01:55:52.227Z,99.99
2022-11-28T01:56:52.215Z,99.99
2022-11-28T01:57:52.193Z,99.99
2022-11-28T01:58:52.307Z,99.99
2022-11-28T01:59:52.170Z,99.99
2022-11-28T02:00:52.221Z,99.99
2022-11-28T02:01:52.189Z,99.99
2022-11-28T02:02:52.125Z,99.99
2022-11-28T02:03:52.119Z,99.99
2022-11-28T02:04:52.103Z,99.99
2022-11-28T02:05:52.090Z,99.99
2022-11-28T02:06:52.078Z,99.99
2022-11-28T02:07:52.187Z,99.99
2022-11-28T02:08:52.059Z,99.99
2022-11-28T02:09:52.038Z,99.99
2022-11-28T02:10:52.033Z,99.99
2022-11-28T02:11:52.022Z,99.99
2022-11-28T02:12:52.006Z,99.99
2022-11-28T02:13:51.988Z,99.99
2022-11-28T02:14:52.106Z,99.99
2022-11-28T02:15:52.007Z,99.99
2022-11-28T02:16:51.951Z,99.99
2022-11-28T02:17:51.934Z,99.99
2022-11-28T02:18:51.921Z,99.99
2022-11-28T02:19:51.907Z,99.99
2022-11-28T02:20:51.899Z,99.99
2022-11-28T02:21:51.881Z,99.99
2022-11-28T02:22:51.875Z,99.99
2022-11-28T02:23:51.863Z,99.99
2022-11-28T02:24:51.851Z,99.99
2022-11-28T02:25:51.836Z,99.99
2022-11-28T02:26:51.823Z,99.99
2022-11-28T02:27:51.804Z,99.99
2022-11-28T02:28:51.798Z,99.99
2022-11-28T02:29:51.780Z,99.99
2022-11-28T02:30:51.898Z,99.99
2022-11-28T02:31:51.809Z,99.99
2022-11-28T02:32:51.742Z,99.99
2022-11-28T02:33:51.728Z,99.99
2022-11-28T02:34:52.271Z,99.99
2022-11-28T02:35:51.704Z,99.99
2022-11-28T02:36:51.687Z,99.99
2022-11-28T02:37:51.671Z,99.99
2022-11-28T02:38:51.667Z,99.99
2022-11-28T02:39:51.647Z,99.99
2022-11-28T02:40:51.634Z,99.99
2022-11-28T02:41:51.622Z,99.99
2022-11-28T02:42:51.611Z,99.99
2022-11-28T02:43:51.603Z,99.99
2022-11-28T02:44:51.583Z,99.99
2022-11-28T02:45:51.573Z,99.99
2022-11-28T02:46:51.731Z,99.99
2022-11-28T02:47:51.545Z,99.99
2022-11-28T02:48:51.538Z,99.99
2022-11-28T02:49:51.568Z,99.99
2022-11-28T02:50:51.509Z,99.99
2022-11-28T02:51:51.501Z,99.99
2022-11-28T02:52:51.476Z,99.99
2022-11-28T02:53:51.473Z,99.99
2022-11-28T02:54:51.459Z,99.99
2022-11-28T02:55:51.440Z,99.99
2022-11-28T02:56:51.437Z,99.99
2022-11-28T02:57:51.421Z,99.99
2022-11-28T02:58:51.407Z,99.99
2022-11-28T02:59:51.389Z,99.99
2022-11-28T03:00:51.440Z,99.99
2022-11-28T03:01:51.416Z,99.99
2022-11-28T03:02:51.478Z,99.99
2022-11-28T03:03:51.346Z,99.99
2022-11-28T03:04:51.324Z,99.99
2022-11-28T03:05:51.310Z,99.99
2022-11-28T03:06:51.302Z,99.99
2022-11-28T03:07:51.379Z,99.99
2022-11-28T03:08:51.275Z,99.99
2022-11-28T03:09:51.279Z,99.99
2022-11-28T03:10:51.246Z,99.99
2022-11-28T03:11:51.243Z,99.99
2022-11-28T03:12:51.220Z,99.99
2022-11-28T03:13:51.207Z,99.99
2022-11-28T03:14:51.193Z,99.99
2022-11-28T03:15:51.232Z,99.99
2022-11-28T03:16:51.178Z,99.99
2022-11-28T03:17:51.163Z,99.99
2022-11-28T03:18:51.267Z,99.99
2022-11-28T03:19:51.136Z,99.99
2022-11-28T03:20:51.128Z,99.99
2022-11-28T03:21:51.116Z,99.99
2022-11-28T03:22:51.092Z,99.99
2022-11-28T03:23:51.087Z,99.99
2022-11-28T03:24:51.072Z,99.99
2022-11-28T03:25:51.061Z,99.99
2022-11-28T03:26:51.043Z,99.99
2022-11-28T03:27:51.027Z,99.99
2022-11-28T03:28:51.012Z,99.99
2022-11-28T03:29:51.000Z,99.99
2022-11-28T03:30:51.086Z,99.99
2022-11-28T03:31:51.011Z,99.99
2022-11-28T03:32:50.960Z,99.99
2022-11-28T03:33:50.953Z,99.99
2022-11-28T03:34:51.063Z,99.99
2022-11-28T03:35:50.922Z,99.99
2022-11-28T03:36:50.915Z,99.99
2022-11-28T03:37:50.896Z,99.99
2022-11-28T03:38:50.890Z,99.99
2022-11-28T03:39:50.880Z,99.99
2022-11-28T03:40:50.858Z,99.99
2022-11-28T03:41:50.844Z,99.99
2022-11-28T03:42:50.838Z,99.99
2022-11-28T03:43:50.818Z,99.99
2022-11-28T03:44:50.813Z,99.99
2022-11-28T03:45:50.795Z,99.99
2022-11-28T03:46:50.863Z,99.99
2022-11-28T03:47:50.772Z,99.99
2022-11-28T03:48:50.750Z,99.99
2022-11-28T03:49:50.739Z,99.99
2022-11-28T03:50:50.846Z,99.99
2022-11-28T03:51:50.807Z,99.99
2022-11-28T03:52:50.704Z,99.99
2022-11-28T03:53:50.699Z,99.99
2022-11-28T03:54:50.675Z,99.99
2022-11-28T03:55:50.703Z,99.99
2022-11-28T03:56:50.652Z,99.99
2022-11-28T03:57:50.648Z,99.99
2022-11-28T03:58:50.623Z,99.99
2022-11-28T03:59:50.610Z,99.99
2022-11-28T04:00:50.649Z,99.99
2022-11-28T04:01:50.595Z,99.99
2022-11-28T04:02:50.605Z,99.99
2022-11-28T04:03:50.559Z,99.99
2022-11-28T04:04:50.546Z,99.99
2022-11-28T04:05:50.533Z,99.99
2022-11-28T04:06:50.639Z,99.99
2022-11-28T04:07:50.553Z,99.99
2022-11-28T04:08:50.502Z,99.99
2022-11-28T04:09:50.485Z,99.99
2022-11-28T04:10:50.476Z,99.99
2022-11-28T04:11:50.457Z,99.99
2022-11-28T04:12:50.456Z,99.99
2022-11-28T04:13:50.438Z,99.99
2022-11-28T04:14:50.416Z,99.99
2022-11-28T04:15:50.403Z,99.99
2022-11-28T04:16:53.791Z,99.99
2022-11-28T04:17:50.385Z,99.99
2022-11-28T04:18:50.363Z,99.99
2022-11-28T04:19:50.349Z,99.99
2022-11-28T04:20:50.344Z,99.99
2022-11-28T04:21:50.329Z,99.99
2022-11-28T04:22:50.443Z,99.99
2022-11-28T04:23:50.308Z,99.99
2022-11-28T04:24:50.291Z,99.99
2022-11-28T04:25:50.276Z,99.99
2022-11-28T04:26:50.267Z,99.99
2022-11-28T04:27:50.246Z,99.99
2022-11-28T04:28:50.239Z,99.99
2022-11-28T04:29:50.222Z,99.99
2022-11-28T04:30:50.207Z,99.99
2022-11-28T04:31:50.278Z,99.99
2022-11-28T04:32:50.180Z,99.99
2022-11-28T04:33:50.168Z,99.99
2022-11-28T04:34:50.163Z,99.99
2022-11-28T04:35:50.150Z,99.99
2022-11-28T04:36:50.144Z,99.99
2022-11-28T04:37:50.131Z,99.99
2022-11-28T04:38:50.223Z,99.99
2022-11-28T04:39:50.094Z,99.99
2022-11-28T04:40:50.075Z,99.99
2022-11-28T04:41:50.074Z,99.99
2022-11-28T04:42:53.019Z,99.99
2022-11-28T04:43:50.045Z,99.99
2022-11-28T04:44:50.031Z,99.99
2022-11-28T04:45:50.131Z,99.99
2022-11-28T04:46:50.000Z,99.99
2022-11-28T04:47:49.987Z,99.99
2022-11-28T04:48:49.980Z,99.99
2022-11-28T04:49:49.968Z,99.99
2022-11-28T04:50:49.966Z,99.99
2022-11-28T04:51:49.945Z,99.99
2022-11-28T04:52:49.927Z,99.99
2022-11-28T04:53:49.911Z,99.99
2022-11-28T04:54:50.010Z,99.99
2022-11-28T04:55:49.884Z,99.99
2022-11-28T04:56:49.871Z,99.99
2022-11-28T04:57:55.693Z,99.99
2022-11-28T04:58:50.892Z,99.99
2022-11-28T04:59:49.833Z,99.99
2022-11-28T05:00:49.915Z,99.99
2022-11-28T05:01:49.884Z,99.99
2022-11-28T05:02:49.794Z,99.99
2022-11-28T05:03:49.781Z,99.99
2022-11-28T05:04:49.775Z,99.99
2022-11-28T05:05:49.763Z,99.99
2022-11-28T05:06:49.743Z,99.99
2022-11-28T05:07:49.792Z,99.99
2022-11-28T05:08:49.723Z,99.99
2022-11-28T05:09:49.711Z,99.99
2022-11-28T05:10:49.814Z,99.99
2022-11-28T05:11:49.677Z,99.99
2022-11-28T05:12:49.665Z,99.99
2022-11-28T05:13:49.659Z,99.99
2022-11-28T05:14:49.649Z,99.99
2022-11-28T05:15:49.636Z,99.99
2022-11-28T05:16:49.681Z,99.99
2022-11-28T05:17:49.612Z,99.99
2022-11-28T05:18:49.598Z,99.99
2022-11-28T05:19:49.576Z,99.99
2022-11-28T05:20:49.571Z,99.99
2022-11-28T05:21:49.557Z,99.99
2022-11-28T05:22:49.539Z,99.99
2022-11-28T05:23:49.529Z,99.99
2022-11-28T05:24:49.518Z,99.99
2022-11-28T05:25:49.501Z,99.99
2022-11-28T05:26:49.613Z,99.99
2022-11-28T05:27:49.470Z,99.99
2022-11-28T05:28:49.465Z,99.99
2022-11-28T05:29:52.204Z,99.99
2022-11-28T05:30:49.437Z,99.99
2022-11-28T05:31:49.515Z,99.99
2022-11-28T05:32:49.409Z,99.99
2022-11-28T05:33:49.409Z,99.99
2022-11-28T05:34:49.380Z,99.99
2022-11-28T05:35:49.370Z,99.99
2022-11-28T05:36:49.361Z,99.99
2022-11-28T05:37:49.353Z,99.99
2022-11-28T05:38:49.336Z,99.99
2022-11-28T05:39:49.319Z,99.99
2022-11-28T05:40:49.302Z,99.99
2022-11-28T05:41:49.290Z,99.99
2022-11-28T05:42:49.406Z,99.99
2022-11-28T05:43:49.278Z,99.99
2022-11-28T05:44:49.258Z,99.99
2022-11-28T05:45:49.314Z,99.99
2022-11-28T05:46:49.226Z,99.99
2022-11-28T05:47:49.218Z,99.99
2022-11-28T05:48:49.197Z,99.99
2022-11-28T05:49:49.189Z,99.99
2022-11-28T05:50:49.172Z,99.99
2022-11-28T05:51:49.167Z,99.99
2022-11-28T05:52:49.149Z,99.99
2022-11-28T05:53:49.142Z,99.99
2022-11-28T05:54:49.127Z,99.99
2022-11-28T05:55:49.116Z,99.99
2022-11-28T05:56:49.099Z,99.99
2022-11-28T05:57:49.092Z,99.99
2022-11-28T05:58:49.194Z,99.99
2022-11-28T05:59:49.055Z,99.99
2022-11-28T06:00:49.050Z,99.99
2022-11-28T06:01:49.073Z,99.99
2022-11-28T06:02:49.022Z,99.99
2022-11-28T06:03:49.010Z,99.99
2022-11-28T06:04:49.101Z,99.99
2022-11-28T06:05:49.052Z,99.99
2022-11-28T06:06:48.965Z,99.99
2022-11-28T06:07:49.018Z,99.99
2022-11-28T06:08:48.938Z,99.99
2022-11-28T06:09:48.927Z,99.99
2022-11-28T06:10:48.914Z,99.99
2022-11-28T06:11:48.901Z,99.99
2022-11-28T06:12:48.893Z,99.99
2022-11-28T06:13:48.872Z,99.99
2022-11-28T06:14:48.980Z,99.99
2022-11-28T06:15:48.853Z,99.99
2022-11-28T06:16:48.888Z,99.99
2022-11-28T06:17:48.827Z,99.99
2022-11-28T06:18:48.818Z,99.99
2022-11-28T06:19:48.798Z,99.99
2022-11-28T06:20:48.782Z,99.99
2022-11-28T06:21:48.779Z,99.99
2022-11-28T06:22:48.767Z,99.99
2022-11-28T06:23:48.757Z,99.99
2022-11-28T06:24:48.737Z,99.99
2022-11-28T06:25:48.719Z,99.99
2022-11-28T06:26:48.706Z,99.99
2022-11-28T06:27:48.701Z,99.99
2022-11-28T06:28:48.675Z,99.99
2022-11-28T06:29:48.667Z,99.99
2022-11-28T06:30:48.771Z,99.99
2022-11-28T06:31:48.731Z,99.99
2022-11-28T06:32:48.625Z,99.99
2022-11-28T06:33:48.613Z,99.99
2022-11-28T06:34:48.600Z,99.99
2022-11-28T06:35:48.586Z,99.99
2022-11-28T06:36:48.583Z,99.99
2022-11-28T06:37:48.557Z,99.99
2022-11-28T06:38:48.551Z,99.99
2022-11-28T06:39:48.549Z,99.99
2022-11-28T06:40:48.527Z,99.99
2022-11-28T06:41:48.516Z,99.99
2022-11-28T06:42:48.505Z,99.99
2022-11-28T06:43:48.494Z,99.99
2022-11-28T06:44:48.478Z,99.99
2022-11-28T06:45:48.504Z,99.99
2022-11-28T06:46:48.574Z,99.99
2022-11-28T06:47:48.432Z,99.99
2022-11-28T06:48:48.426Z,99.99
2022-11-28T06:49:48.406Z,99.99
2022-11-28T06:50:48.394Z,99.99
2022-11-28T06:51:48.380Z,99.99
2022-11-28T06:52:48.378Z,99.99
2022-11-28T06:53:48.360Z,99.99
2022-11-28T06:54:48.340Z,99.99
2022-11-28T06:55:48.336Z,99.99
2022-11-28T06:56:48.323Z,99.99
2022-11-28T06:57:48.304Z,99.99
2022-11-28T06:58:48.298Z,99.99
2022-11-28T06:59:48.284Z,99.99
2022-11-28T07:00:48.338Z,99.99
2022-11-28T07:01:48.353Z,99.99
2022-11-28T07:02:48.425Z,99.99
2022-11-28T07:03:48.236Z,99.99
2022-11-28T07:04:48.227Z,99.99
2022-11-28T07:05:48.200Z,99.99
2022-11-28T07:06:48.205Z,99.99
2022-11-28T07:07:54.211Z,99.99
2022-11-28T07:08:49.202Z,99.99
2022-11-28T07:09:48.154Z,99.99
2022-11-28T07:10:48.142Z,99.99
2022-11-28T07:11:48.140Z,99.99
2022-11-28T07:12:48.112Z,99.99
2022-11-28T07:13:48.108Z,99.99
2022-11-28T07:14:48.091Z,99.99
2022-11-28T07:15:48.080Z,99.99
2022-11-28T07:16:48.108Z,99.99
2022-11-28T07:17:48.047Z,99.99
2022-11-28T07:18:48.142Z,99.99
2022-11-28T07:19:53.458Z,99.99
2022-11-28T07:20:49.053Z,99.99
2022-11-28T07:21:47.997Z,99.99
2022-11-28T07:22:47.993Z,99.99
2022-11-28T07:23:47.984Z,99.99
2022-11-28T07:24:47.954Z,99.99
2022-11-28T07:25:47.950Z,99.99
2022-11-28T07:26:47.934Z,99.99
2022-11-28T07:27:47.920Z,99.99
2022-11-28T07:28:47.911Z,99.99
2022-11-28T07:29:47.887Z,99.99
2022-11-28T07:30:47.882Z,99.99
2022-11-28T07:31:47.904Z,99.99
2022-11-28T07:32:47.863Z,99.99
2022-11-28T07:33:47.845Z,99.99
2022-11-28T07:34:50.267Z,99.99
2022-11-28T07:35:47.804Z,99.99
2022-11-28T07:36:47.804Z,99.99
2022-11-28T07:37:47.788Z,99.99
2022-11-28T07:38:47.768Z,99.99
2022-11-28T07:39:47.762Z,99.99
2022-11-28T07:40:47.762Z,99.99
2022-11-28T07:41:47.744Z,99.99
2022-11-28T07:42:47.731Z,99.99
2022-11-28T07:43:47.710Z,99.99
2022-11-28T07:44:47.694Z,99.99
2022-11-28T07:46:00.608Z,99.99
2022-11-28T07:46:48.785Z,99.99
2022-11-28T07:47:47.665Z,99.99
2022-11-28T07:48:47.643Z,99.99
2022-11-28T07:49:47.627Z,99.99
2022-11-28T07:50:47.647Z,99.99
2022-11-28T07:51:47.609Z,99.99
2022-11-28T07:52:47.605Z,99.99
2022-11-28T07:53:47.578Z,99.99
2022-11-28T07:54:47.562Z,99.99
2022-11-28T07:55:47.550Z,99.99
2022-11-28T07:57:48.573Z,99.99
2022-11-28T07:58:47.523Z,99.99
2022-11-28T07:59:47.508Z,99.99
2022-11-28T08:00:47.498Z,99.99
2022-11-28T08:01:47.519Z,99.99
2022-11-28T08:02:47.458Z,99.99
2022-11-28T08:03:47.454Z,99.99
2022-11-28T08:04:51.610Z,99.99
2022-11-28T08:05:48.467Z,99.99
2022-11-28T08:06:47.453Z,99.99
2022-11-28T08:07:47.457Z,99.99
2022-11-28T08:08:47.381Z,99.99
2022-11-28T08:09:47.377Z,99.99
2022-11-28T08:10:47.364Z,99.99
2022-11-28T08:11:47.355Z,99.99
2022-11-28T08:12:47.350Z,99.99
2022-11-28T08:13:47.314Z,99.99
2022-11-28T08:14:47.306Z,99.99
2022-11-28T08:15:47.293Z,99.99
2022-11-28T08:16:47.391Z,99.99
2022-11-28T08:17:47.266Z,99.99
2022-11-28T08:18:47.259Z,99.99
2022-11-28T08:19:47.258Z,99.99
2022-11-28T08:20:47.244Z,99.99
2022-11-28T08:21:47.215Z,99.99
2022-11-28T08:22:47.258Z,99.99
2022-11-28T08:23:47.194Z,99.99
2022-11-28T08:24:47.177Z,99.99
2022-11-28T08:25:47.161Z,99.99
2022-11-28T08:26:47.149Z,99.99
2022-11-28T08:27:47.132Z,99.99
2022-11-28T08:28:47.125Z,99.99
2022-11-28T08:29:51.951Z,99.99
2022-11-28T08:30:48.197Z,99.99
2022-11-28T08:31:47.086Z,99.99
2022-11-28T08:32:47.080Z,99.99
2022-11-28T08:33:47.072Z,99.99
2022-11-28T08:34:47.055Z,99.99
2022-11-28T08:35:47.047Z,99.99
2022-11-28T08:36:47.029Z,99.99
2022-11-28T08:37:47.023Z,99.99
2022-11-28T08:38:57.802Z,99.99
2022-11-28T08:39:48.033Z,99.99
2022-11-28T08:40:46.974Z,99.99
2022-11-28T08:41:46.965Z,99.99
2022-11-28T08:42:46.949Z,99.99
2022-11-28T08:43:46.935Z,99.99
2022-11-28T08:44:46.935Z,99.99
2022-11-28T08:45:47.009Z,99.99
2022-11-28T08:46:46.914Z,99.99
2022-11-28T08:47:46.889Z,99.99
2022-11-28T08:48:46.872Z,99.99
2022-11-28T08:49:46.867Z,99.99
2022-11-28T08:50:48.166Z,99.99
2022-11-28T08:51:46.839Z,99.99
2022-11-28T08:52:46.820Z,99.99
2022-11-28T08:53:49.302Z,99.99
2022-11-28T08:54:46.821Z,99.99
2022-11-28T08:55:46.783Z,99.99
2022-11-28T08:56:46.768Z,99.99
2022-11-28T08:57:46.748Z,99.99
2022-11-28T08:58:46.740Z,99.99
2022-11-28T08:59:46.753Z,99.99
2022-11-28T09:00:46.709Z,99.99
2022-11-28T09:01:46.799Z,99.99
2022-11-28T09:02:46.698Z,99.99
2022-11-28T09:03:46.925Z,99.99
2022-11-28T09:04:46.663Z,99.99
2022-11-28T09:05:46.657Z,99.99
2022-11-28T09:06:46.636Z,99.99
2022-11-28T09:07:46.688Z,99.99
2022-11-28T09:08:46.610Z,99.99
2022-11-28T09:09:46.735Z,99.99
2022-11-28T09:10:46.609Z,99.99
2022-11-28T09:11:46.570Z,99.99
2022-11-28T09:12:46.569Z,99.99
2022-11-28T09:13:46.554Z,99.99
2022-11-28T09:14:46.534Z,99.99
2022-11-28T09:15:49.029Z,99.99
2022-11-28T09:16:46.624Z,99.99
2022-11-28T09:17:46.491Z,99.99
2022-11-28T09:18:46.498Z,99.99
2022-11-28T09:19:46.468Z,99.99
2022-11-28T09:20:46.457Z,99.99
2022-11-28T09:21:46.441Z,99.99
2022-11-28T09:22:46.430Z,99.99
2022-11-28T09:23:46.417Z,99.99
2022-11-28T09:24:46.420Z,99.99
2022-11-28T09:25:46.386Z,99.99
2022-11-28T09:26:46.415Z,99.99
2022-11-28T09:27:46.364Z,99.99
2022-11-28T09:28:46.383Z,99.99
2022-11-28T09:29:46.335Z,99.99
2022-11-28T09:30:46.357Z,99.99
2022-11-28T09:31:47.659Z,99.99
2022-11-28T09:32:46.307Z,99.99
2022-11-28T09:33:46.274Z,99.99
2022-11-28T09:34:46.268Z,99.99
2022-11-28T09:35:46.267Z,99.99
2022-11-28T09:36:46.243Z,99.96
2022-11-28T09:37:46.226Z,99.99
2022-11-28T09:38:46.285Z,99.99
2022-11-28T09:40:11.632Z,99.99
2022-11-28T09:40:47.218Z,99.99
2022-11-28T09:41:46.190Z,99.99
2022-11-28T09:42:46.187Z,99.99
2022-11-28T09:43:49.686Z,99.99
2022-11-28T09:44:46.140Z,99.99
2022-11-28T09:45:46.174Z,99.99
2022-11-28T09:46:46.241Z,99.99
2022-11-28T09:47:46.108Z,99.99
2022-11-28T09:48:46.092Z,99.99
2022-11-28T09:49:46.570Z,99.99
2022-11-28T09:50:46.064Z,99.99
2022-11-28T09:51:46.057Z,99.99
2022-11-28T09:52:46.093Z,99.99
2022-11-28T09:53:46.021Z,99.99
2022-11-28T09:54:46.015Z,99.99
2022-11-28T09:55:46.004Z,99.99
2022-11-28T09:56:46.028Z,99.93
2022-11-28T09:57:45.969Z,99.82
2022-11-28T09:58:45.992Z,99.72
2022-11-28T09:59:46.065Z,99.66
2022-11-28T10:00:45.941Z,99.35
2022-11-28T10:01:45.918Z,99.25
2022-11-28T10:02:45.899Z,99.35
2022-11-28T10:03:45.936Z,99.25
2022-11-28T10:04:45.933Z,99.25
2022-11-28T10:05:45.866Z,98.94
2022-11-28T10:06:45.960Z,98.83
2022-11-28T10:07:45.899Z,98.83
2022-11-28T10:08:45.828Z,98.83
2022-11-28T10:09:45.943Z,98.90
2022-11-28T10:10:45.812Z,98.79
2022-11-28T10:11:45.788Z,98.79
2022-11-28T10:12:45.779Z,98.58
2022-11-28T10:14:07.100Z,98.52
2022-11-28T10:14:46.818Z,98.38
2022-11-28T10:15:45.734Z,98.38
2022-11-28T10:16:45.816Z,98.69
2022-11-28T10:17:45.719Z,98.90
2022-11-28T10:18:45.701Z,99.10
2022-11-28T10:19:54.413Z,99.21
2022-11-28T10:20:46.706Z,99.21
2022-11-28T10:21:45.670Z,99.26
2022-11-28T10:22:45.653Z,99.37
2022-11-28T10:23:45.649Z,99.37
2022-11-28T10:24:45.651Z,99.37
2022-11-28T10:25:45.615Z,99.37
2022-11-28T10:26:45.601Z,99.32
2022-11-28T10:27:45.589Z,99.22
2022-11-28T10:28:45.574Z,99.11
2022-11-28T10:29:45.901Z,99.11
2022-11-28T10:30:45.632Z,99.01
2022-11-28T10:31:45.535Z,99.01
2022-11-28T10:32:45.516Z,99.11
2022-11-28T10:33:45.506Z,98.80
2022-11-28T10:34:45.507Z,98.60
2022-11-28T10:35:45.487Z,98.49
2022-11-28T10:36:45.479Z,98.08
2022-11-28T10:37:45.459Z,97.66
2022-11-28T10:38:45.449Z,97.25
2022-11-28T10:39:45.725Z,97.04
2022-11-28T10:40:45.415Z,96.94
2022-11-28T10:41:45.400Z,96.62
2022-11-28T10:42:45.396Z,96.01
2022-11-28T10:43:45.384Z,95.90
2022-11-28T10:44:45.362Z,96.01
2022-11-28T10:45:45.463Z,96.01
2022-11-28T10:46:45.543Z,96.11
2022-11-28T10:47:45.323Z,96.31
2022-11-28T10:48:45.312Z,96.69
2022-11-28T10:49:45.547Z,96.89
2022-11-28T10:50:45.284Z,97.00
2022-11-28T10:51:45.277Z,97.00
2022-11-28T10:52:45.266Z,97.00
2022-11-28T10:53:45.250Z,96.89
2022-11-28T10:54:45.230Z,97.00
2022-11-28T10:55:45.217Z,97.00
2022-11-28T10:56:45.205Z,96.89
2022-11-28T10:57:45.192Z,96.58
2022-11-28T10:58:45.179Z,96.17
2022-11-28T10:59:45.478Z,96.06
2022-11-28T11:00:45.150Z,96.17
2022-11-28T11:01:49.992Z,96.02
2022-11-28T11:02:45.159Z,95.86
2022-11-28T11:03:45.112Z,95.86
2022-11-28T11:04:45.162Z,95.86
2022-11-28T11:05:45.086Z,96.12
2022-11-28T11:07:07.158Z,96.33
2022-11-28T11:07:46.152Z,96.54
2022-11-28T11:08:45.054Z,96.33
2022-11-28T11:09:45.290Z,96.33
2022-11-28T11:10:45.033Z,96.02
2022-11-28T11:11:45.018Z,95.71
2022-11-28T11:12:45.005Z,95.81
2022-11-28T11:13:44.995Z,95.92
2022-11-28T11:14:44.975Z,96.02
2022-11-28T11:15:44.983Z,95.71
2022-11-28T11:16:44.951Z,95.71
2022-11-28T11:17:44.936Z,95.61
2022-11-28T11:18:45.541Z,95.40
2022-11-28T11:19:45.284Z,95.09
2022-11-28T11:20:44.899Z,95.40
2022-11-28T11:21:44.886Z,95.25
2022-11-28T11:22:46.192Z,94.94
2022-11-28T11:23:44.867Z,94.32
2022-11-28T11:24:44.847Z,94.43
2022-11-28T11:25:44.833Z,94.32
2022-11-28T11:26:44.812Z,93.80
2022-11-28T11:27:44.809Z,93.54
2022-11-28T11:28:44.804Z,93.85
2022-11-28T11:29:46.077Z,94.06
2022-11-28T11:30:44.844Z,94.22
2022-11-28T11:31:44.752Z,94.84
2022-11-28T11:32:50.028Z,95.15
2022-11-28T11:33:45.770Z,95.15
2022-11-28T11:34:44.736Z,95.36
2022-11-28T11:35:44.704Z,95.46
2022-11-28T11:36:44.688Z,95.67
2022-11-28T11:37:44.685Z,95.25
2022-11-28T11:38:44.673Z,94.73
2022-11-28T11:39:44.886Z,94.53
2022-11-28T11:40:44.635Z,94.73
2022-11-28T11:41:44.624Z,94.94
2022-11-28T11:42:44.605Z,94.73
2022-11-28T11:43:44.596Z,94.73
2022-11-28T11:44:44.578Z,94.94
2022-11-28T11:45:47.275Z,95.04
2022-11-28T11:46:45.643Z,95.36
2022-11-28T11:47:44.552Z,95.56
2022-11-28T11:48:44.533Z,95.67
2022-11-28T11:49:44.975Z,95.77
2022-11-28T11:50:44.533Z,95.83
2022-11-28T11:51:44.505Z,95.94
2022-11-28T11:52:44.479Z,95.52
2022-11-28T11:53:44.462Z,95.52
2022-11-28T11:54:44.452Z,95.52
2022-11-28T11:55:44.438Z,95.42
2022-11-28T11:56:44.434Z,95.31
2022-11-28T11:57:44.426Z,95.31
2022-11-28T11:58:44.413Z,95.31
2022-11-28T11:59:44.883Z,95.42
2022-11-28T12:00:44.385Z,95.42
2022-11-28T12:01:44.363Z,95.00
2022-11-28T12:02:44.421Z,93.97
2022-11-28T12:03:44.362Z,93.87
2022-11-28T12:04:47.259Z,93.97
2022-11-28T12:06:06.565Z,94.28
2022-11-28T12:06:45.367Z,94.48
2022-11-28T12:07:44.337Z,94.79
2022-11-28T12:08:44.272Z,94.38
2022-11-28T12:09:44.616Z,94.28
2022-11-28T12:10:44.247Z,94.38
2022-11-28T12:11:47.075Z,94.18
2022-11-28T12:12:44.232Z,93.87
2022-11-28T12:13:44.218Z,93.97
2022-11-28T12:14:44.745Z,94.38
2022-11-28T12:15:44.310Z,94.28
2022-11-28T12:16:44.359Z,94.38
2022-11-28T12:17:55.790Z,94.38
2022-11-28T12:18:45.189Z,94.59
2022-11-28T12:19:44.147Z,94.79
2022-11-28T12:20:44.142Z,94.69
2022-11-28T12:21:44.122Z,94.79
2022-11-28T12:22:44.129Z,94.90
2022-11-28T12:23:44.087Z,94.90
2022-11-28T12:24:44.087Z,94.59
2022-11-28T12:25:44.067Z,94.28
2022-11-28T12:26:44.040Z,94.79
2022-11-28T12:27:44.043Z,94.69
2022-11-28T12:28:44.023Z,94.79
2022-11-28T12:29:44.257Z,94.90
2022-11-28T12:30:44.895Z,95.00
2022-11-28T12:31:44.049Z,95.21
2022-11-28T12:32:43.980Z,95.52
2022-11-28T12:33:43.963Z,95.83
2022-11-28T12:34:43.958Z,95.62
2022-11-28T12:35:43.944Z,95.48
2022-11-28T12:36:43.928Z,94.69
2022-11-28T12:38:09.806Z,94.23
2022-11-28T12:38:43.931Z,94.54
2022-11-28T12:39:44.016Z,94.65
2022-11-28T12:40:43.880Z,95.06
2022-11-28T12:41:43.864Z,95.06
2022-11-28T12:42:43.898Z,94.75
2022-11-28T12:43:43.845Z,94.54
2022-11-28T12:44:43.828Z,94.92
2022-11-28T12:45:43.819Z,95.43
2022-11-28T12:46:43.896Z,95.74
2022-11-28T12:47:43.808Z,95.32
2022-11-28T12:48:47.438Z,95.22
2022-11-28T12:49:44.182Z,95.12
2022-11-28T12:50:43.751Z,95.18
2022-11-28T12:51:43.744Z,95.18
2022-11-28T12:52:43.725Z,95.39
2022-11-28T12:53:43.721Z,95.70